Terminal Aerodrome Forecast
Issued by NWS

Home | Current Version | Previous Version | Graphics & Text | Print | Product List | Glossary Off
Versions: 1 2 3 4 5 6 7 8 9 10 11 12 13 14 15 16 17 18

000
FTUS43 KDDC 150723 AAA
TAFGCK
TAF AMD
KGCK 150723Z 1507/1606 35015KT P6SM SKC
     FM150900 01021G31KT P6SM SKC
     FM151200 01015G25KT P6SM SKC
     FM151500 03010G20KT P6SM SKC
     FM152100 VRB05KT P6SM SKC
     FM160300 15010KT P6SM SKC=

USA.gov is the U.S. government's official web portal to all federal, state and local government web resources and services.